createdAt,value
2023-01-26T00:00:32.793Z,51.30
2023-01-26T00:02:06.182Z,54.83
2023-01-26T00:03:38.633Z,52.20
2023-01-26T00:05:12.071Z,53.20
2023-01-26T00:06:45.467Z,54.67
2023-01-26T00:08:20.264Z,52.10
2023-01-26T00:09:53.678Z,56.07
2023-01-26T00:11:26.970Z,48.57
2023-01-26T00:13:00.411Z,50.67
2023-01-26T00:14:49.839Z,55.10
2023-01-26T00:16:23.632Z,49.53
2023-01-26T00:17:56.021Z,49.25
2023-01-26T00:19:29.406Z,54.43
2023-01-26T00:21:03.520Z,50.73
2023-01-26T00:22:35.920Z,50.20
2023-01-26T00:24:10.979Z,49.00
2023-01-26T00:25:44.446Z,58.37
2023-01-26T00:27:17.866Z,48.13
2023-01-26T00:28:51.415Z,52.13
2023-01-26T00:30:25.664Z,50.77
2023-01-26T00:31:59.095Z,59.17
2023-01-26T00:33:32.518Z,59.23
2023-01-26T00:35:06.327Z,56.17
2023-01-26T00:36:42.868Z,58.50
2023-01-26T00:38:16.249Z,51.53
2023-01-26T00:39:51.035Z,57.07
2023-01-26T00:41:42.314Z,55.73
2023-01-26T00:43:15.823Z,57.97
2023-01-26T00:44:49.394Z,56.67
2023-01-26T00:46:21.789Z,56.27
2023-01-26T00:47:55.260Z,57.17
2023-01-26T00:49:28.644Z,56.80
2023-01-26T00:51:02.022Z,51.07
2023-01-26T00:52:35.423Z,49.80
2023-01-26T00:54:07.828Z,50.70
2023-01-26T00:55:42.588Z,54.23
2023-01-26T00:57:16.264Z,55.77
2023-01-26T00:58:49.637Z,52.67
2023-01-26T01:00:24.381Z,52.43
2023-01-26T01:01:58.204Z,59.03
2023-01-26T01:03:31.634Z,57.73
2023-01-26T01:05:05.095Z,57.80
2023-01-26T01:06:37.533Z,60.70
2023-01-26T01:08:10.906Z,55.73
2023-01-26T01:09:44.283Z,58.23
2023-01-26T01:11:19.310Z,60.43
2023-01-26T01:12:51.671Z,57.73
2023-01-26T01:14:25.072Z,62.47
2023-01-26T01:15:58.485Z,55.20
2023-01-26T01:17:31.902Z,56.87
2023-01-26T01:19:04.324Z,56.00
2023-01-26T01:20:37.713Z,53.87
2023-01-26T01:22:11.109Z,54.60
2023-01-26T01:23:43.976Z,49.00
2023-01-26T01:25:17.469Z,54.37
2023-01-26T01:26:52.219Z,55.77
2023-01-26T01:28:24.677Z,56.57
2023-01-26T01:29:58.107Z,59.30
2023-01-26T01:31:30.794Z,60.40
2023-01-26T01:33:04.999Z,62.53
2023-01-26T01:34:38.390Z,55.97
2023-01-26T01:36:12.194Z,58.57
2023-01-26T01:37:45.595Z,63.10
2023-01-26T01:39:19.016Z,56.53
2023-01-26T01:40:52.477Z,62.87
2023-01-26T01:42:27.543Z,58.10
2023-01-26T01:44:12.757Z,60.67
2023-01-26T01:45:47.139Z,63.17
2023-01-26T01:47:26.656Z,60.00
2023-01-26T01:49:01.393Z,61.20
2023-01-26T01:50:37.993Z,57.40
2023-01-26T01:52:12.658Z,68.50
2023-01-26T01:53:46.992Z,67.07
2023-01-26T01:55:20.554Z,61.33
2023-01-26T01:56:56.595Z,66.27
2023-01-26T01:58:33.110Z,61.60
2023-01-26T02:00:08.055Z,61.93
2023-01-26T02:01:47.400Z,61.17
2023-01-26T02:03:21.402Z,58.73
2023-01-26T02:04:55.907Z,59.07
2023-01-26T02:06:31.538Z,62.10
2023-01-26T02:08:06.518Z,63.53
2023-01-26T02:09:59.155Z,63.17
2023-01-26T02:11:35.291Z,58.93
2023-01-26T02:13:07.834Z,57.60
2023-01-26T02:14:42.769Z,55.90
2023-01-26T02:16:16.554Z,68.82
2023-01-26T02:17:50.207Z,62.97
2023-01-26T02:19:27.759Z,58.90
2023-01-26T02:21:02.453Z,62.10
2023-01-26T02:22:40.792Z,55.13
2023-01-26T02:24:16.715Z,59.13
2023-01-26T02:25:58.557Z,57.87
2023-01-26T02:27:32.159Z,61.90
2023-01-26T02:29:08.304Z,64.07
2023-01-26T02:30:42.161Z,63.57
2023-01-26T02:32:16.099Z,65.77
2023-01-26T02:33:49.559Z,64.80
2023-01-26T02:35:22.968Z,67.03
2023-01-26T02:36:59.839Z,67.13
2023-01-26T02:38:39.398Z,69.00
2023-01-26T02:40:16.914Z,72.80
2023-01-26T02:42:09.531Z,71.47
2023-01-26T02:43:42.993Z,73.13
2023-01-26T02:45:17.223Z,71.72
2023-01-26T02:46:51.760Z,72.13
2023-01-26T02:48:43.639Z,75.45
2023-01-26T02:50:17.371Z,76.63
2023-01-26T02:51:50.537Z,75.38
2023-01-26T02:53:24.120Z,77.30
2023-01-26T02:55:15.142Z,73.80
2023-01-26T02:56:48.545Z,77.13
2023-01-26T02:58:23.354Z,74.07
2023-01-26T02:59:55.794Z,72.90
2023-01-26T03:01:31.587Z,75.50
2023-01-26T03:03:09.566Z,77.60
2023-01-26T03:04:42.062Z,77.35
2023-01-26T03:06:15.640Z,74.37
2023-01-26T03:07:49.289Z,75.90
2023-01-26T03:09:25.509Z,78.47
2023-01-26T03:10:59.069Z,80.63
2023-01-26T03:12:31.491Z,74.00
2023-01-26T03:14:06.252Z,76.73
2023-01-26T03:15:52.420Z,78.00
2023-01-26T03:17:27.333Z,77.03
2023-01-26T03:19:18.044Z,82.17
2023-01-26T03:21:09.340Z,73.57
2023-01-26T03:23:08.874Z,76.97
2023-01-26T03:24:59.714Z,75.10
2023-01-26T03:26:50.473Z,78.33
2023-01-26T03:28:24.950Z,75.37
2023-01-26T03:30:00.802Z,89.22
2023-01-26T03:31:33.308Z,80.17
2023-01-26T03:33:07.219Z,77.20
2023-01-26T03:34:40.644Z,75.07
2023-01-26T03:36:13.044Z,77.77
2023-01-26T03:37:46.532Z,76.93
2023-01-26T03:39:51.195Z,76.60
2023-01-26T03:41:42.274Z,76.57
2023-01-26T03:43:33.889Z,71.13
2023-01-26T03:45:27.027Z,69.20
2023-01-26T03:47:17.915Z,74.13
2023-01-26T03:49:09.271Z,79.40
2023-01-26T03:51:00.118Z,72.87
2023-01-26T03:52:51.825Z,68.47
2023-01-26T03:54:43.121Z,71.47
2023-01-26T03:56:21.697Z,77.47
2023-01-26T03:57:56.541Z,72.87
2023-01-26T03:59:39.053Z,77.10
2023-01-26T04:01:27.559Z,78.00
2023-01-26T04:03:20.273Z,81.63
2023-01-26T04:05:11.651Z,65.87
2023-01-26T04:07:06.490Z,72.87
2023-01-26T04:08:40.800Z,71.97
2023-01-26T04:10:14.257Z,74.83
2023-01-26T04:11:48.170Z,73.63
2023-01-26T04:13:40.318Z,74.43
2023-01-26T04:15:32.911Z,71.73
2023-01-26T04:17:26.553Z,76.07
2023-01-26T04:19:17.469Z,78.00
2023-01-26T04:21:09.900Z,74.32
2023-01-26T04:22:45.202Z,76.93
2023-01-26T04:24:22.313Z,77.30
2023-01-26T04:26:00.136Z,77.93
2023-01-26T04:27:34.979Z,77.60
2023-01-26T04:29:10.333Z,77.67
2023-01-26T04:30:44.219Z,83.10
2023-01-26T04:32:19.203Z,78.40
2023-01-26T04:33:53.737Z,81.13
2023-01-26T04:35:27.998Z,85.37
2023-01-26T04:37:01.537Z,81.37
2023-01-26T04:38:45.167Z,80.78
2023-01-26T04:40:21.028Z,79.93
2023-01-26T04:41:55.766Z,83.65
2023-01-26T04:43:29.206Z,77.93
2023-01-26T04:45:02.656Z,85.93
2023-01-26T04:46:37.301Z,88.83
2023-01-26T04:48:12.411Z,79.37
2023-01-26T04:49:45.884Z,89.80
2023-01-26T04:51:21.254Z,90.07
2023-01-26T04:52:54.709Z,94.27
2023-01-26T04:54:28.119Z,88.90
2023-01-26T04:56:01.601Z,87.22
2023-01-26T04:57:36.239Z,85.47
2023-01-26T04:59:11.499Z,96.77
2023-01-26T05:00:51.954Z,91.18
2023-01-26T05:02:25.399Z,88.27
2023-01-26T05:04:02.408Z,93.10
2023-01-26T05:05:38.064Z,94.40
2023-01-26T05:07:11.540Z,88.20
2023-01-26T05:08:45.269Z,96.43
2023-01-26T05:10:18.982Z,98.63
2023-01-26T05:12:35.166Z,91.33
2023-01-26T05:14:37.694Z,89.90
2023-01-26T05:16:27.700Z,95.32
2023-01-26T05:18:10.082Z,94.53
2023-01-26T05:19:56.387Z,103.65
2023-01-26T05:21:56.090Z,98.63
2023-01-26T05:23:29.620Z,92.28
2023-01-26T05:25:29.243Z,98.05
2023-01-26T05:27:23.708Z,104.00
2023-01-26T05:29:00.466Z,103.78
2023-01-26T05:30:32.960Z,110.00
2023-01-26T05:32:08.224Z,101.13
2023-01-26T05:33:41.689Z,111.10
2023-01-26T05:35:18.872Z,109.25
2023-01-26T05:36:52.382Z,107.90
2023-01-26T05:38:26.342Z,114.72
2023-01-26T05:39:58.918Z,108.80
2023-01-26T05:41:32.778Z,105.10
2023-01-26T05:43:26.475Z,103.30
2023-01-26T05:45:15.970Z,104.10
2023-01-26T05:46:49.385Z,103.38
2023-01-26T05:48:22.799Z,115.63
2023-01-26T05:49:58.582Z,98.25
2023-01-26T05:51:36.656Z,102.32
2023-01-26T05:53:11.029Z,101.78
2023-01-26T05:54:45.241Z,106.90
2023-01-26T05:56:18.602Z,107.82
2023-01-26T05:57:56.601Z,105.80
2023-01-26T05:59:30.092Z,97.73
2023-01-26T06:01:05.721Z,102.23
2023-01-26T06:02:48.727Z,94.57
2023-01-26T06:04:23.736Z,90.37
2023-01-26T06:06:00.178Z,88.50
2023-01-26T06:07:54.719Z,82.93
2023-01-26T06:09:33.487Z,90.82
2023-01-26T06:11:42.107Z,84.15
2023-01-26T06:13:35.798Z,83.47
2023-01-26T06:15:22.071Z,84.87
2023-01-26T06:16:56.837Z,85.30
2023-01-26T06:18:30.869Z,83.47
2023-01-26T06:20:07.367Z,89.25
2023-01-26T06:21:41.510Z,88.75
2023-01-26T06:23:16.275Z,93.80
2023-01-26T06:24:51.477Z,90.43
2023-01-26T06:26:25.006Z,90.17
2023-01-26T06:27:59.458Z,97.07
2023-01-26T06:29:34.505Z,89.93
2023-01-26T06:31:08.652Z,84.28
2023-01-26T06:32:42.137Z,82.28
2023-01-26T06:34:15.582Z,81.07
2023-01-26T06:35:49.882Z,83.90
2023-01-26T06:37:23.256Z,84.60
2023-01-26T06:39:00.886Z,84.30
2023-01-26T06:40:34.757Z,86.05
2023-01-26T06:42:09.371Z,92.53
2023-01-26T06:43:46.540Z,79.80
2023-01-26T06:45:20.803Z,69.78
2023-01-26T06:46:55.226Z,74.78
2023-01-26T06:48:31.085Z,79.57
2023-01-26T06:50:05.035Z,72.40
2023-01-26T06:51:43.571Z,74.15
2023-01-26T06:53:31.514Z,79.65
2023-01-26T06:55:42.632Z,80.95
2023-01-26T06:57:40.065Z,74.03
2023-01-26T06:59:43.590Z,76.22
2023-01-26T07:01:32.843Z,75.15
2023-01-26T07:03:06.278Z,71.60
2023-01-26T07:04:39.677Z,73.63
2023-01-26T07:06:13.142Z,73.47
2023-01-26T07:07:46.657Z,69.65
2023-01-26T07:09:20.024Z,85.57
2023-01-26T07:10:54.807Z,85.57
2023-01-26T07:12:28.186Z,73.60
2023-01-26T07:14:01.602Z,84.10
2023-01-26T07:15:35.201Z,78.43
2023-01-26T07:17:08.622Z,77.55
2023-01-26T07:18:42.035Z,80.47
2023-01-26T07:20:15.541Z,80.88
2023-01-26T07:21:49.504Z,81.13
2023-01-26T07:23:22.913Z,81.90
2023-01-26T07:24:56.288Z,90.75
2023-01-26T07:26:31.058Z,88.75
2023-01-26T07:28:04.421Z,90.88
2023-01-26T07:29:37.821Z,96.28
2023-01-26T07:31:12.808Z,100.15
2023-01-26T07:32:46.378Z,96.18
2023-01-26T07:34:19.770Z,103.53
2023-01-26T07:35:54.873Z,99.75
2023-01-26T07:37:29.278Z,95.40
2023-01-26T07:39:02.778Z,100.90
2023-01-26T07:40:36.238Z,91.50
2023-01-26T07:42:11.503Z,90.40
2023-01-26T07:43:53.607Z,85.07
2023-01-26T07:45:27.790Z,82.93
2023-01-26T07:47:01.183Z,79.35
2023-01-26T07:48:34.710Z,93.93
2023-01-26T07:50:09.056Z,84.93
2023-01-26T07:51:42.681Z,87.10
2023-01-26T07:53:15.153Z,74.03
2023-01-26T07:54:48.560Z,78.87
2023-01-26T07:56:21.961Z,84.97
2023-01-26T07:57:57.850Z,79.60
2023-01-26T07:59:31.327Z,83.90
2023-01-26T08:01:08.511Z,70.35
2023-01-26T08:02:42.123Z,76.40
2023-01-26T08:04:15.550Z,70.82
2023-01-26T08:05:48.934Z,79.40
2023-01-26T08:07:22.404Z,70.18
2023-01-26T08:08:55.818Z,79.35
2023-01-26T08:10:31.555Z,72.05
2023-01-26T08:12:05.309Z,78.28
2023-01-26T08:13:40.244Z,81.00
2023-01-26T08:15:13.845Z,75.97
2023-01-26T08:16:47.297Z,69.60
2023-01-26T08:18:20.962Z,73.38
2023-01-26T08:19:54.387Z,82.20
2023-01-26T08:21:27.914Z,80.38
2023-01-26T08:23:01.335Z,81.30
2023-01-26T08:24:35.157Z,72.03
2023-01-26T08:26:10.235Z,78.40
2023-01-26T08:27:43.747Z,85.18
2023-01-26T08:29:20.766Z,71.53
2023-01-26T08:30:54.224Z,70.85
2023-01-26T08:32:27.713Z,76.55
2023-01-26T08:34:01.426Z,71.43
2023-01-26T08:35:34.818Z,80.88
2023-01-26T08:37:08.340Z,79.53
2023-01-26T08:38:42.126Z,93.60
2023-01-26T08:40:16.442Z,97.57
2023-01-26T08:41:49.816Z,87.63
2023-01-26T08:43:23.255Z,90.50
2023-01-26T08:44:58.086Z,84.20
2023-01-26T08:46:31.455Z,102.53
2023-01-26T08:48:04.960Z,100.45
2023-01-26T08:49:38.401Z,87.95
2023-01-26T08:51:11.795Z,93.25
2023-01-26T08:52:45.248Z,84.70
2023-01-26T08:54:18.646Z,82.80
2023-01-26T08:55:52.709Z,99.88
2023-01-26T08:57:26.289Z,93.38
2023-01-26T08:58:59.690Z,89.43
2023-01-26T09:00:34.426Z,89.95
2023-01-26T09:02:07.936Z,94.30
2023-01-26T09:03:41.822Z,91.18
2023-01-26T09:05:15.216Z,90.93
2023-01-26T09:06:48.677Z,83.45
2023-01-26T09:08:22.104Z,90.07
2023-01-26T09:09:55.537Z,86.55
2023-01-26T09:11:28.933Z,94.22
2023-01-26T09:13:02.771Z,92.07
2023-01-26T09:14:36.152Z,90.18
2023-01-26T09:16:21.661Z,90.93
2023-01-26T09:17:55.167Z,97.18
2023-01-26T09:19:30.746Z,92.15
2023-01-26T09:21:05.034Z,89.85
2023-01-26T09:22:38.454Z,100.32
2023-01-26T09:24:11.929Z,89.93
2023-01-26T09:25:45.387Z,100.22
2023-01-26T09:27:18.770Z,92.75
2023-01-26T09:28:53.017Z,86.95
2023-01-26T09:30:26.484Z,105.20
2023-01-26T09:32:01.300Z,101.50
2023-01-26T09:33:34.783Z,104.82
2023-01-26T09:35:14.306Z,95.00
2023-01-26T09:36:47.841Z,98.65
2023-01-26T09:38:21.221Z,110.90
2023-01-26T09:39:54.643Z,109.22
2023-01-26T09:41:37.110Z,119.28
2023-01-26T09:43:19.162Z,104.75
2023-01-26T09:44:54.708Z,97.50
2023-01-26T09:46:29.606Z,95.57
2023-01-26T09:48:20.806Z,97.75
2023-01-26T09:50:00.688Z,100.68
2023-01-26T09:51:35.228Z,86.30
2023-01-26T09:53:12.497Z,86.15
2023-01-26T09:54:48.932Z,91.32
2023-01-26T09:56:23.764Z,84.82
2023-01-26T09:57:58.790Z,79.68
2023-01-26T09:59:35.101Z,84.43
2023-01-26T10:01:16.580Z,86.55
2023-01-26T10:02:57.198Z,82.68
2023-01-26T10:04:36.399Z,90.22
2023-01-26T10:06:15.316Z,83.30
2023-01-26T10:08:10.192Z,90.28
2023-01-26T10:09:46.024Z,95.80
2023-01-26T10:11:20.942Z,90.03
2023-01-26T10:12:54.890Z,98.20
2023-01-26T10:14:33.184Z,90.03
2023-01-26T10:16:11.879Z,96.18
2023-01-26T10:17:46.039Z,112.07
2023-01-26T10:19:22.301Z,93.55
2023-01-26T10:20:56.929Z,91.97
2023-01-26T10:22:33.683Z,85.00
2023-01-26T10:24:07.323Z,96.50
2023-01-26T10:25:42.265Z,97.57
2023-01-26T10:27:15.675Z,88.28
2023-01-26T10:28:50.225Z,89.95
2023-01-26T10:30:23.902Z,89.32
2023-01-26T10:31:57.353Z,90.47
2023-01-26T10:33:33.958Z,93.32
2023-01-26T10:35:07.925Z,88.10
2023-01-26T10:36:42.327Z,94.68
2023-01-26T10:38:29.667Z,86.57
2023-01-26T10:40:04.098Z,81.75
2023-01-26T10:41:37.826Z,90.13
2023-01-26T10:43:19.206Z,86.88
2023-01-26T10:44:52.810Z,96.65
2023-01-26T10:46:28.808Z,84.47
2023-01-26T10:48:18.030Z,85.28
2023-01-26T10:49:51.456Z,71.80
2023-01-26T10:51:26.241Z,72.85
2023-01-26T10:53:00.436Z,80.65
2023-01-26T10:54:36.859Z,77.45
2023-01-26T10:56:14.373Z,85.68
2023-01-26T10:57:47.862Z,88.85
2023-01-26T10:59:26.935Z,84.43
2023-01-26T11:01:00.414Z,83.90
2023-01-26T11:02:33.870Z,76.10
2023-01-26T11:04:08.062Z,70.88
2023-01-26T11:05:43.437Z,74.00
2023-01-26T11:07:26.225Z,70.85
2023-01-26T11:09:10.163Z,74.65
2023-01-26T11:10:53.950Z,78.15
2023-01-26T11:12:27.929Z,78.43
2023-01-26T11:14:14.872Z,76.60
2023-01-26T11:15:49.407Z,76.10
2023-01-26T11:17:24.639Z,72.80
2023-01-26T11:19:00.249Z,81.80
2023-01-26T11:20:42.204Z,75.38
2023-01-26T11:22:18.914Z,74.00
2023-01-26T11:23:54.724Z,82.85
2023-01-26T11:25:29.862Z,85.50
2023-01-26T11:27:20.664Z,85.35
2023-01-26T11:28:58.856Z,80.15
2023-01-26T11:30:38.810Z,72.20
2023-01-26T11:32:16.879Z,77.05
2023-01-26T11:33:56.487Z,74.95
2023-01-26T11:35:32.274Z,71.85
2023-01-26T11:37:20.051Z,67.00
2023-01-26T11:38:59.421Z,64.47
2023-01-26T11:40:38.255Z,61.00
2023-01-26T11:42:20.321Z,62.78
2023-01-26T11:44:00.466Z,68.10
2023-01-26T11:45:38.416Z,61.83
2023-01-26T11:47:18.609Z,62.03
2023-01-26T11:48:58.187Z,65.22
2023-01-26T11:50:35.084Z,63.40
2023-01-26T11:52:13.200Z,62.63
2023-01-26T11:53:58.219Z,64.75
2023-01-26T11:55:37.275Z,67.68
2023-01-26T11:57:16.227Z,73.38
2023-01-26T11:58:51.387Z,63.40
2023-01-26T12:00:30.757Z,58.72
2023-01-26T12:02:06.780Z,58.38
2023-01-26T12:03:43.388Z,60.95
2023-01-26T12:05:19.487Z,62.60
2023-01-26T12:06:55.795Z,59.38
2023-01-26T12:08:38.235Z,64.22
2023-01-26T12:10:14.502Z,63.90
2023-01-26T12:11:50.669Z,62.65
2023-01-26T12:13:29.899Z,59.72
2023-01-26T12:15:06.012Z,64.00
2023-01-26T12:17:16.704Z,68.00
2023-01-26T12:19:10.058Z,70.55
2023-01-26T12:20:46.556Z,62.28
2023-01-26T12:22:22.661Z,66.05
2023-01-26T12:23:59.927Z,61.13
2023-01-26T12:25:35.359Z,56.58
2023-01-26T12:27:13.964Z,55.92
2023-01-26T12:28:49.551Z,60.90
2023-01-26T12:30:28.619Z,63.00
2023-01-26T12:32:05.942Z,62.80
2023-01-26T12:33:39.483Z,61.95
2023-01-26T12:35:13.628Z,64.60
2023-01-26T12:36:51.103Z,61.05
2023-01-26T12:38:27.332Z,59.10
2023-01-26T12:40:07.370Z,67.50
2023-01-26T12:41:48.127Z,59.45
2023-01-26T12:43:25.386Z,61.97
2023-01-26T12:45:00.155Z,63.42
2023-01-26T12:46:35.887Z,61.95
2023-01-26T12:48:13.211Z,68.68
2023-01-26T12:49:51.205Z,64.63
2023-01-26T12:51:27.199Z,65.82
2023-01-26T12:53:03.076Z,69.18
2023-01-26T12:54:39.344Z,64.22
2023-01-26T12:56:15.124Z,64.75
2023-01-26T12:57:50.981Z,61.33
2023-01-26T12:59:47.884Z,62.97
2023-01-26T13:01:23.449Z,60.08
2023-01-26T13:02:58.585Z,53.53
2023-01-26T13:04:33.367Z,55.92
2023-01-26T13:06:20.381Z,45.00
2023-01-26T13:07:53.782Z,47.60
2023-01-26T13:09:27.817Z,52.55
2023-01-26T13:11:01.793Z,49.83
2023-01-26T13:12:48.618Z,42.40
2023-01-26T13:14:32.878Z,46.90
2023-01-26T13:16:32.275Z,44.88
2023-01-26T13:18:06.382Z,44.08
2023-01-26T13:19:54.040Z,40.60
2023-01-26T13:21:30.851Z,41.88
2023-01-26T13:23:04.265Z,43.83
2023-01-26T13:24:44.187Z,46.35
2023-01-26T13:26:43.464Z,49.90
2023-01-26T13:28:17.098Z,44.75
2023-01-26T13:29:56.839Z,44.40
2023-01-26T13:31:31.585Z,38.95
2023-01-26T13:33:12.618Z,40.65
2023-01-26T13:34:48.447Z,40.13
2023-01-26T13:36:24.943Z,42.20
2023-01-26T13:38:00.248Z,43.17
2023-01-26T13:39:36.324Z,41.47
2023-01-26T13:41:11.268Z,46.47
2023-01-26T13:42:50.033Z,46.17
2023-01-26T13:44:24.693Z,47.92
2023-01-26T13:46:01.853Z,50.75
2023-01-26T13:47:37.918Z,46.95
2023-01-26T13:49:25.334Z,47.10
2023-01-26T13:51:01.598Z,46.25
2023-01-26T13:52:43.384Z,49.03
2023-01-26T13:54:17.923Z,49.38
2023-01-26T13:55:53.770Z,48.70
2023-01-26T13:57:28.214Z,48.38
2023-01-26T13:59:05.891Z,42.17
2023-01-26T14:00:39.691Z,44.17
2023-01-26T14:02:13.455Z,41.33
2023-01-26T14:03:46.925Z,43.17
2023-01-26T14:05:23.263Z,39.72
2023-01-26T14:06:58.102Z,45.78
2023-01-26T14:08:33.614Z,40.75
2023-01-26T14:10:08.002Z,42.58
2023-01-26T14:11:41.494Z,44.95
2023-01-26T14:13:18.463Z,35.83
2023-01-26T14:14:53.030Z,39.35
2023-01-26T14:16:28.505Z,34.08
2023-01-26T14:18:02.972Z,35.72
2023-01-26T14:19:41.401Z,40.10
2023-01-26T14:21:18.113Z,36.05
2023-01-26T14:23:03.857Z,41.78
2023-01-26T14:24:41.232Z,43.67
2023-01-26T14:26:19.723Z,39.20
2023-01-26T14:27:53.106Z,39.70
2023-01-26T14:29:27.811Z,43.72
2023-01-26T14:31:03.423Z,46.17
2023-01-26T14:32:36.829Z,37.05
2023-01-26T14:34:11.584Z,39.53
2023-01-26T14:35:45.686Z,39.13
2023-01-26T14:37:19.749Z,40.95
2023-01-26T14:38:54.319Z,37.28
2023-01-26T14:40:29.184Z,39.80
2023-01-26T14:42:02.592Z,37.15
2023-01-26T14:43:37.172Z,36.83
2023-01-26T14:45:13.565Z,38.15
2023-01-26T14:46:53.858Z,36.20
2023-01-26T14:48:28.436Z,36.90
2023-01-26T14:50:03.536Z,33.08
2023-01-26T14:51:37.216Z,32.45
2023-01-26T14:53:18.645Z,34.92
2023-01-26T14:54:54.280Z,34.55
2023-01-26T14:56:33.559Z,34.90
2023-01-26T14:58:15.099Z,37.63
2023-01-26T14:59:50.613Z,37.63
2023-01-26T15:01:25.308Z,43.47
2023-01-26T15:03:00.455Z,37.85
2023-01-26T15:04:38.323Z,38.22
2023-01-26T15:06:20.418Z,35.70
2023-01-26T15:07:57.353Z,39.65
2023-01-26T15:09:30.768Z,39.08
2023-01-26T15:11:22.019Z,40.33
2023-01-26T15:13:01.386Z,38.58
2023-01-26T15:14:36.244Z,37.55
2023-01-26T15:16:16.170Z,37.83
2023-01-26T15:18:01.647Z,39.20
2023-01-26T15:19:40.813Z,39.85
2023-01-26T15:21:15.265Z,37.55
2023-01-26T15:22:50.604Z,38.33
2023-01-26T15:24:24.076Z,42.05
2023-01-26T15:25:57.961Z,32.97
2023-01-26T15:27:35.214Z,35.25
2023-01-26T15:29:19.550Z,32.38
2023-01-26T15:30:54.379Z,36.03
2023-01-26T15:32:29.353Z,36.78
2023-01-26T15:34:03.067Z,37.80
2023-01-26T15:35:36.767Z,32.40
2023-01-26T15:37:25.015Z,36.40
2023-01-26T15:39:00.596Z,33.45
2023-01-26T15:40:34.112Z,36.15
2023-01-26T15:42:14.239Z,32.45
2023-01-26T15:43:47.628Z,36.53
2023-01-26T15:45:25.202Z,32.20
2023-01-26T15:46:59.333Z,35.25
2023-01-26T15:48:35.003Z,31.70
2023-01-26T15:50:13.488Z,33.15
2023-01-26T15:51:55.925Z,32.72
2023-01-26T15:53:29.403Z,29.88
2023-01-26T15:55:02.778Z,32.42
2023-01-26T15:56:36.184Z,33.58
2023-01-26T15:58:09.570Z,32.17
2023-01-26T15:59:42.975Z,34.80
2023-01-26T16:01:20.788Z,32.75
2023-01-26T16:02:54.151Z,31.83
2023-01-26T16:04:28.250Z,33.95
2023-01-26T16:06:01.648Z,33.78
2023-01-26T16:07:35.058Z,32.22
2023-01-26T16:09:08.479Z,39.92
2023-01-26T16:10:42.175Z,36.85
2023-01-26T16:12:31.107Z,32.75
2023-01-26T16:14:05.629Z,33.83
2023-01-26T16:15:41.148Z,38.35
2023-01-26T16:17:16.809Z,34.38
2023-01-26T16:18:50.190Z,33.05
2023-01-26T16:20:23.618Z,35.88
2023-01-26T16:21:57.039Z,34.47
2023-01-26T16:23:31.880Z,37.85
2023-01-26T16:25:12.651Z,35.65
2023-01-26T16:26:46.182Z,37.92
2023-01-26T16:28:19.973Z,36.97
2023-01-26T16:29:53.370Z,36.03
2023-01-26T16:31:27.840Z,34.67
2023-01-26T16:33:02.775Z,36.50
2023-01-26T16:34:36.173Z,38.65
2023-01-26T16:36:11.041Z,36.72
2023-01-26T16:37:44.623Z,32.75
2023-01-26T16:39:17.991Z,37.95
2023-01-26T16:40:51.544Z,35.60
2023-01-26T16:42:24.967Z,32.33
2023-01-26T16:43:59.485Z,34.10
2023-01-26T16:45:33.839Z,34.80
2023-01-26T16:47:07.304Z,35.13
2023-01-26T16:48:43.475Z,35.20
2023-01-26T16:50:17.215Z,35.40
2023-01-26T16:51:50.623Z,36.58
2023-01-26T16:53:26.298Z,35.42
2023-01-26T16:54:59.687Z,34.20
2023-01-26T16:56:33.316Z,31.80
2023-01-26T16:58:06.660Z,37.17
2023-01-26T16:59:40.146Z,34.28
2023-01-26T17:01:18.905Z,35.95
2023-01-26T17:02:52.819Z,32.42
2023-01-26T17:04:27.703Z,36.30
2023-01-26T17:06:01.097Z,34.33
2023-01-26T17:07:34.463Z,33.92
2023-01-26T17:09:07.871Z,34.53
2023-01-26T17:10:55.547Z,40.50
2023-01-26T17:12:34.273Z,38.08
2023-01-26T17:14:07.875Z,36.50
2023-01-26T17:15:41.255Z,38.17
2023-01-26T17:17:14.644Z,35.70
2023-01-26T17:18:48.416Z,33.33
2023-01-26T17:20:23.252Z,35.30
2023-01-26T17:21:57.819Z,35.40
2023-01-26T17:23:32.168Z,32.50
2023-01-26T17:25:05.755Z,35.30
2023-01-26T17:26:39.913Z,34.10
2023-01-26T17:28:13.261Z,36.72
2023-01-26T17:29:46.823Z,35.05
2023-01-26T17:31:21.248Z,33.60
2023-01-26T17:32:54.678Z,35.67
2023-01-26T17:34:28.036Z,35.08
2023-01-26T17:36:03.337Z,37.33
2023-01-26T17:37:37.585Z,36.13
2023-01-26T17:39:11.642Z,35.85
2023-01-26T17:40:45.018Z,37.58
2023-01-26T17:42:18.448Z,38.22
2023-01-26T17:43:51.950Z,37.00
2023-01-26T17:45:25.788Z,37.85
2023-01-26T17:46:59.282Z,35.50
2023-01-26T17:48:32.633Z,39.05
2023-01-26T17:50:06.579Z,37.83
2023-01-26T17:51:42.164Z,37.25
2023-01-26T17:53:15.582Z,43.70
2023-01-26T17:54:49.062Z,42.40
2023-01-26T17:56:23.014Z,41.97
2023-01-26T17:57:56.398Z,39.72
2023-01-26T17:59:29.782Z,39.08
2023-01-26T18:01:03.184Z,41.90
2023-01-26T18:02:38.512Z,44.42
2023-01-26T18:04:11.907Z,37.83
2023-01-26T18:05:52.618Z,38.00
2023-01-26T18:07:27.403Z,41.70
2023-01-26T18:09:00.787Z,41.00
2023-01-26T18:10:34.169Z,43.63
2023-01-26T18:12:07.952Z,42.90
2023-01-26T18:13:41.372Z,40.33
2023-01-26T18:15:14.766Z,42.17
2023-01-26T18:16:48.226Z,42.67
2023-01-26T18:18:21.611Z,40.35
2023-01-26T18:19:54.994Z,39.58
2023-01-26T18:21:29.108Z,41.30
2023-01-26T18:23:03.846Z,42.30
2023-01-26T18:24:37.240Z,45.28
2023-01-26T18:26:10.614Z,41.25
2023-01-26T18:27:43.948Z,40.92
2023-01-26T18:29:17.643Z,42.40
2023-01-26T18:30:51.070Z,42.38
2023-01-26T18:32:24.618Z,40.88
2023-01-26T18:33:58.874Z,37.83
2023-01-26T18:35:34.203Z,37.90
2023-01-26T18:37:07.573Z,38.65
2023-01-26T18:38:42.968Z,39.00
2023-01-26T18:40:17.939Z,35.08
2023-01-26T18:41:51.312Z,36.10
2023-01-26T18:43:27.767Z,35.20
2023-01-26T18:45:01.825Z,32.67
2023-01-26T18:46:35.221Z,36.08
2023-01-26T18:48:08.643Z,33.50
2023-01-26T18:49:42.017Z,32.40
2023-01-26T18:51:15.822Z,33.08
2023-01-26T18:52:49.182Z,30.27
2023-01-26T18:54:24.425Z,28.10
2023-01-26T18:56:01.763Z,28.70
2023-01-26T18:57:35.152Z,30.17
2023-01-26T18:59:10.654Z,27.10
2023-01-26T19:00:44.809Z,31.85
2023-01-26T19:02:18.244Z,25.75
2023-01-26T19:03:55.317Z,27.13
2023-01-26T19:05:29.429Z,27.05
2023-01-26T19:07:02.793Z,25.00
2023-01-26T19:08:36.447Z,22.48
2023-01-26T19:10:12.073Z,23.15
2023-01-26T19:11:45.503Z,25.02
2023-01-26T19:13:18.911Z,27.25
2023-01-26T19:14:52.274Z,27.98
2023-01-26T19:16:25.797Z,28.38
2023-01-26T19:17:59.424Z,30.88
2023-01-26T19:19:32.833Z,31.15
2023-01-26T19:21:06.543Z,35.60
2023-01-26T19:22:39.949Z,33.72
2023-01-26T19:24:13.361Z,34.45
2023-01-26T19:25:48.141Z,36.47
2023-01-26T19:27:21.918Z,39.55
2023-01-26T19:28:55.789Z,39.00
2023-01-26T19:30:29.290Z,36.63
2023-01-26T19:32:02.717Z,41.70
2023-01-26T19:33:35.180Z,41.47
2023-01-26T19:35:10.455Z,40.78
2023-01-26T19:36:46.746Z,43.13
2023-01-26T19:38:20.114Z,42.45
2023-01-26T19:39:53.492Z,45.10
2023-01-26T19:41:28.436Z,44.78
2023-01-26T19:43:00.867Z,46.15
2023-01-26T19:44:34.367Z,46.53
2023-01-26T19:46:09.382Z,45.47
2023-01-26T19:47:44.312Z,42.40
2023-01-26T19:49:17.746Z,40.22
2023-01-26T19:51:00.828Z,42.42
2023-01-26T19:52:34.211Z,43.03
2023-01-26T19:54:07.644Z,44.15
2023-01-26T19:55:41.014Z,45.67
2023-01-26T19:57:15.721Z,39.42
2023-01-26T19:58:50.980Z,40.63
2023-01-26T20:00:25.889Z,43.88
2023-01-26T20:01:59.296Z,40.17
2023-01-26T20:03:32.663Z,39.50
2023-01-26T20:05:06.308Z,39.42
2023-01-26T20:06:39.712Z,40.95
2023-01-26T20:08:13.096Z,40.40
2023-01-26T20:09:46.563Z,37.13
2023-01-26T20:11:24.747Z,37.55
2023-01-26T20:13:01.256Z,41.42
2023-01-26T20:14:34.819Z,43.95
2023-01-26T20:16:08.616Z,40.80
2023-01-26T20:17:42.701Z,41.00
2023-01-26T20:19:16.155Z,44.08
2023-01-26T20:20:51.100Z,48.33
2023-01-26T20:22:24.546Z,43.28
2023-01-26T20:23:57.973Z,42.53
2023-01-26T20:25:31.583Z,40.22
2023-01-26T20:27:05.029Z,42.33
2023-01-26T20:28:40.704Z,45.38
2023-01-26T20:30:14.800Z,40.63
2023-01-26T20:31:48.854Z,42.15
2023-01-26T20:33:22.366Z,41.13
2023-01-26T20:34:55.733Z,44.58
2023-01-26T20:36:29.589Z,43.65
2023-01-26T20:38:03.389Z,44.85
2023-01-26T20:39:36.887Z,49.50
2023-01-26T20:41:11.056Z,45.83
2023-01-26T20:42:44.505Z,46.92